sensor_id;sensor_type;location;lat;lon;timestamp;pressure;altitude;pressure_sealevel;temperature;humidity
70902;BME280;58548;47.210;8.618;2023-03-25T00:01:16;93709.06;;;16.05;33.47
70902;BME280;58548;47.210;8.618;2023-03-25T00:03:42;93787.06;;;16.58;33.79
70902;BME280;58548;47.210;8.618;2023-03-25T00:06:12;93706.84;;;16.13;34.39
70902;BME280;58548;47.210;8.618;2023-03-25T00:08:38;93808.88;;;16.83;34.47
70902;BME280;58548;47.210;8.618;2023-03-25T00:11:05;93690.59;;;16.17;34.15
70902;BME280;58548;47.210;8.618;2023-03-25T00:13:33;93805.53;;;16.87;34.51
70902;BME280;58548;47.210;8.618;2023-03-25T00:16:00;93804.06;;;16.80;34.70
70902;BME280;58548;47.210;8.618;2023-03-25T00:18:30;93757.44;;;16.39;34.92
70902;BME280;58548;47.210;8.618;2023-03-25T00:21:04;93817.53;;;16.66;35.89
70902;BME280;58548;47.210;8.618;2023-03-25T00:23:36;93764.56;;;16.27;36.83
70902;BME280;58548;47.210;8.618;2023-03-25T00:26:03;93717.19;;;16.03;37.43
70902;BME280;58548;47.210;8.618;2023-03-25T00:28:33;93841.50;;;16.94;37.36
70902;BME280;58548;47.210;8.618;2023-03-25T00:31:02;93801.59;;;16.61;37.89
70902;BME280;58548;47.210;8.618;2023-03-25T00:33:30;93810.09;;;16.63;37.95
70902;BME280;58548;47.210;8.618;2023-03-25T00:36:00;93797.28;;;16.43;37.98
70902;BME280;58548;47.210;8.618;2023-03-25T00:38:28;93878.72;;;16.80;38.08
70902;BME280;58548;47.210;8.618;2023-03-25T00:41:16;93884.31;;;16.84;38.12
70902;BME280;58548;47.210;8.618;2023-03-25T00:43:46;93888.41;;;16.92;37.84
70902;BME280;58548;47.210;8.618;2023-03-25T00:46:15;93871.25;;;16.89;37.57
70902;BME280;58548;47.210;8.618;2023-03-25T00:48:41;93837.81;;;16.54;37.71
70902;BME280;58548;47.210;8.618;2023-03-25T00:51:08;93876.19;;;16.73;38.21
70902;BME280;58548;47.210;8.618;2023-03-25T00:53:41;93889.84;;;16.70;38.08
70902;BME280;58548;47.210;8.618;2023-03-25T00:56:07;93875.75;;;16.53;38.09
70902;BME280;58548;47.210;8.618;2023-03-25T00:58:35;93768.53;;;15.89;37.98
70902;BME280;58548;47.210;8.618;2023-03-25T01:01:13;93765.06;;;16.00;37.80
70902;BME280;58548;47.210;8.618;2023-03-25T01:03:40;93889.72;;;16.77;37.33
70902;BME280;58548;47.210;8.618;2023-03-25T01:06:10;93878.34;;;16.77;37.85
70902;BME280;58548;47.210;8.618;2023-03-25T01:08:38;93771.03;;;16.07;37.60
70902;BME280;58548;47.210;8.618;2023-03-25T01:11:05;93900.94;;;16.84;37.52
70902;BME280;58548;47.210;8.618;2023-03-25T01:13:34;93880.69;;;16.61;37.49
70902;BME280;58548;47.210;8.618;2023-03-25T01:15:59;93792.53;;;15.80;38.18
70902;BME280;58548;47.210;8.618;2023-03-25T01:18:28;93899.41;;;16.36;38.25
70902;BME280;58548;47.210;8.618;2023-03-25T01:20:59;93685.91;;;14.76;38.51
70902;BME280;58548;47.210;8.618;2023-03-25T01:23:25;93818.78;;;15.33;38.85
70902;BME280;58548;47.210;8.618;2023-03-25T01:25:53;93890.25;;;15.72;38.24
70902;BME280;58548;47.210;8.618;2023-03-25T01:28:19;93876.19;;;15.66;38.82
70902;BME280;58548;47.210;8.618;2023-03-25T01:30:45;93892.88;;;15.60;39.09
70902;BME280;58548;47.210;8.618;2023-03-25T01:33:15;93863.84;;;15.25;38.48
70902;BME280;58548;47.210;8.618;2023-03-25T01:35:41;93876.41;;;14.92;38.75
70902;BME280;58548;47.210;8.618;2023-03-25T01:38:07;93800.56;;;14.58;39.05
70902;BME280;58548;47.210;8.618;2023-03-25T01:40:40;93813.59;;;14.65;38.64
70902;BME280;58548;47.210;8.618;2023-03-25T01:43:09;93864.84;;;14.74;39.14
70902;BME280;58548;47.210;8.618;2023-03-25T01:45:40;93841.03;;;14.32;40.55
70902;BME280;58548;47.210;8.618;2023-03-25T01:51:14;93852.44;;;13.82;41.64
70902;BME280;58548;47.210;8.618;2023-03-25T01:53:42;93848.00;;;13.82;41.93
70902;BME280;58548;47.210;8.618;2023-03-25T01:56:12;93861.09;;;14.08;41.78
70902;BME280;58548;47.210;8.618;2023-03-25T01:58:40;93771.03;;;13.63;41.96
70902;BME280;58548;47.210;8.618;2023-03-25T02:01:12;93750.06;;;13.63;41.39
70902;BME280;58548;47.210;8.618;2023-03-25T02:03:41;93825.44;;;14.18;40.67
70902;BME280;58548;47.210;8.618;2023-03-25T02:06:26;93829.94;;;14.11;40.90
70902;BME280;58548;47.210;8.618;2023-03-25T02:09:00;93729.91;;;13.57;41.15
70902;BME280;58548;47.210;8.618;2023-03-25T02:11:29;93718.47;;;13.51;40.77
70902;BME280;58548;47.210;8.618;2023-03-25T02:14:02;93821.13;;;14.24;40.09
70902;BME280;58548;47.210;8.618;2023-03-25T02:22:11;93829.75;;;14.50;39.61
70902;BME280;58548;47.210;8.618;2023-03-25T02:34:10;93827.28;;;14.74;38.74
70902;BME280;58548;47.210;8.618;2023-03-25T02:39:42;93808.25;;;14.90;37.86
70902;BME280;58548;47.210;8.618;2023-03-25T02:42:40;93817.00;;;15.03;38.25
70902;BME280;58548;47.210;8.618;2023-03-25T02:45:11;93805.25;;;15.17;37.77
70902;BME280;58548;47.210;8.618;2023-03-25T02:47:49;93688.88;;;14.49;37.58
70902;BME280;58548;47.210;8.618;2023-03-25T02:50:27;93808.00;;;15.11;37.01
70902;BME280;58548;47.210;8.618;2023-03-25T02:53:00;93773.91;;;15.04;37.08
70902;BME280;58548;47.210;8.618;2023-03-25T02:55:31;93803.09;;;15.26;36.72
70902;BME280;58548;47.210;8.618;2023-03-25T02:58:05;93784.66;;;15.14;37.13
70902;BME280;58548;47.210;8.618;2023-03-25T03:00:35;93805.25;;;15.17;36.53
70902;BME280;58548;47.210;8.618;2023-03-25T03:03:07;93819.03;;;15.31;36.76
70902;BME280;58548;47.210;8.618;2023-03-25T03:05:47;93785.00;;;15.18;36.74
70902;BME280;58548;47.210;8.618;2023-03-25T03:19:34;93695.84;;;14.74;35.48
70902;BME280;58548;47.210;8.618;2023-03-25T03:25:08;93847.81;;;15.68;35.27
70902;BME280;58548;47.210;8.618;2023-03-25T03:27:54;93794.38;;;15.26;35.79
70902;BME280;58548;47.210;8.618;2023-03-25T03:30:37;93863.50;;;15.75;36.14
70902;BME280;58548;47.210;8.618;2023-03-25T03:33:36;93871.91;;;15.96;36.16
70902;BME280;58548;47.210;8.618;2023-03-25T03:36:09;93883.81;;;15.87;36.12
70902;BME280;58548;47.210;8.618;2023-03-25T03:39:18;93877.56;;;15.81;37.16
70902;BME280;58548;47.210;8.618;2023-03-25T03:41:51;93894.34;;;15.87;36.52
70902;BME280;58548;47.210;8.618;2023-03-25T03:44:27;93847.19;;;15.55;36.30
70902;BME280;58548;47.210;8.618;2023-03-25T03:47:05;93894.81;;;15.95;35.50
70902;BME280;58548;47.210;8.618;2023-03-25T03:49:43;93887.06;;;15.70;35.64
70902;BME280;58548;47.210;8.618;2023-03-25T03:55:11;93913.28;;;15.65;35.83
70902;BME280;58548;47.210;8.618;2023-03-25T03:57:50;93933.25;;;15.54;35.66
70902;BME280;58548;47.210;8.618;2023-03-25T04:00:28;93935.41;;;15.27;36.40
70902;BME280;58548;47.210;8.618;2023-03-25T04:03:07;93832.59;;;14.30;36.54
70902;BME280;58548;47.210;8.618;2023-03-25T04:05:46;93955.06;;;14.93;36.46
70902;BME280;58548;47.210;8.618;2023-03-25T04:08:52;93958.81;;;14.60;37.16
70902;BME280;58548;47.210;8.618;2023-03-25T04:11:32;93953.91;;;14.20;37.67
70902;BME280;58548;47.210;8.618;2023-03-25T04:14:02;93963.34;;;14.02;37.71
70902;BME280;58548;47.210;8.618;2023-03-25T04:16:32;93973.22;;;13.75;38.30
70902;BME280;58548;47.210;8.618;2023-03-25T04:18:58;93953.69;;;13.64;38.59
70902;BME280;58548;47.210;8.618;2023-03-25T04:21:24;93858.88;;;12.90;39.23
70902;BME280;58548;47.210;8.618;2023-03-25T04:23:53;93861.03;;;13.00;38.82
70902;BME280;58548;47.210;8.618;2023-03-25T04:26:21;93882.50;;;13.22;38.77
70902;BME280;58548;47.210;8.618;2023-03-25T04:28:47;93965.59;;;13.67;38.94
70902;BME280;58548;47.210;8.618;2023-03-25T04:31:16;93955.13;;;13.60;38.88
70902;BME280;58548;47.210;8.618;2023-03-25T04:33:44;93911.34;;;13.22;39.27
70902;BME280;58548;47.210;8.618;2023-03-25T04:36:15;93853.03;;;12.88;39.37
70902;BME280;58548;47.210;8.618;2023-03-25T04:38:41;93944.56;;;13.74;39.16
70902;BME280;58548;47.210;8.618;2023-03-25T04:41:12;93963.41;;;13.64;38.96
70902;BME280;58548;47.210;8.618;2023-03-25T04:43:39;93949.97;;;13.47;39.46
70902;BME280;58548;47.210;8.618;2023-03-25T04:46:12;93958.69;;;13.40;39.68
70902;BME280;58548;47.210;8.618;2023-03-25T04:48:39;93849.03;;;12.78;39.33
70902;BME280;58548;47.210;8.618;2023-03-25T04:51:07;93852.72;;;12.71;39.96
70902;BME280;58548;47.210;8.618;2023-03-25T04:53:35;93857.53;;;12.74;39.71
70902;BME280;58548;47.210;8.618;2023-03-25T04:56:01;93839.59;;;12.71;39.95
70902;BME280;58548;47.210;8.618;2023-03-25T04:58:30;93938.69;;;13.39;39.79
70902;BME280;58548;47.210;8.618;2023-03-25T05:00:58;93840.53;;;12.83;39.92
70902;BME280;58548;47.210;8.618;2023-03-25T05:03:33;93821.63;;;12.74;39.64
70902;BME280;58548;47.210;8.618;2023-03-25T05:05:59;93831.66;;;12.84;39.58
70902;BME280;58548;47.210;8.618;2023-03-25T05:08:25;93932.81;;;13.51;39.77
70902;BME280;58548;47.210;8.618;2023-03-25T05:10:51;93825.84;;;12.82;39.64
70902;BME280;58548;47.210;8.618;2023-03-25T05:13:17;93795.28;;;12.69;39.83
70902;BME280;58548;47.210;8.618;2023-03-25T05:15:45;93863.16;;;13.16;39.98
70902;BME280;58548;47.210;8.618;2023-03-25T05:18:15;93827.47;;;12.76;40.34
70902;BME280;58548;47.210;8.618;2023-03-25T05:20:43;93907.28;;;13.26;40.42
70902;BME280;58548;47.210;8.618;2023-03-25T05:23:12;93906.88;;;13.29;40.51
70902;BME280;58548;47.210;8.618;2023-03-25T05:25:47;93843.16;;;12.83;40.75
70902;BME280;58548;47.210;8.618;2023-03-25T05:28:14;93730.53;;;11.85;41.23
70902;BME280;58548;47.210;8.618;2023-03-25T05:30:46;93912.00;;;13.10;40.86
70902;BME280;58548;47.210;8.618;2023-03-25T05:33:18;93897.44;;;13.21;40.81
70902;BME280;58548;47.210;8.618;2023-03-25T05:35:51;93825.72;;;12.70;41.29
70902;BME280;58548;47.210;8.618;2023-03-25T05:38:20;93912.88;;;13.36;40.61
70902;BME280;58548;47.210;8.618;2023-03-25T05:40:47;93883.03;;;13.31;40.90
70902;BME280;58548;47.210;8.618;2023-03-25T05:43:15;93910.81;;;13.52;40.54
70902;BME280;58548;47.210;8.618;2023-03-25T05:45:42;93835.97;;;13.10;40.63
70902;BME280;58548;47.210;8.618;2023-03-25T05:48:11;93785.72;;;12.81;40.56
70902;BME280;58548;47.210;8.618;2023-03-25T05:50:37;93908.38;;;13.82;40.41
70902;BME280;58548;47.210;8.618;2023-03-25T05:53:14;93789.94;;;13.15;40.35
70902;BME280;58548;47.210;8.618;2023-03-25T05:55:43;93914.88;;;13.98;40.35
70902;BME280;58548;47.210;8.618;2023-03-25T05:58:11;93896.72;;;13.97;40.32
70902;BME280;58548;47.210;8.618;2023-03-25T06:00:37;93849.66;;;13.77;40.04
70902;BME280;58548;47.210;8.618;2023-03-25T06:03:06;93805.16;;;13.63;39.77
70902;BME280;58548;47.210;8.618;2023-03-25T06:05:32;93901.63;;;14.37;39.61
70902;BME280;58548;47.210;8.618;2023-03-25T06:07:58;93694.41;;;13.10;39.38
70902;BME280;58548;47.210;8.618;2023-03-25T06:10:24;93907.81;;;14.43;39.61
70902;BME280;58548;47.210;8.618;2023-03-25T06:12:50;93915.78;;;14.55;39.86
70902;BME280;58548;47.210;8.618;2023-03-25T06:15:19;93916.31;;;14.63;39.85
70902;BME280;58548;47.210;8.618;2023-03-25T06:17:55;93919.47;;;14.72;39.88
70902;BME280;58548;47.210;8.618;2023-03-25T06:20:24;93930.66;;;14.86;39.70
70902;BME280;58548;47.210;8.618;2023-03-25T06:22:51;93888.56;;;14.68;39.78
70902;BME280;58548;47.210;8.618;2023-03-25T06:25:22;93931.69;;;15.04;39.22
70902;BME280;58548;47.210;8.618;2023-03-25T06:27:51;93942.03;;;15.17;39.04
70902;BME280;58548;47.210;8.618;2023-03-25T06:30:21;93949.69;;;15.19;38.62
70902;BME280;58548;47.210;8.618;2023-03-25T06:32:51;93958.97;;;15.21;38.53
70902;BME280;58548;47.210;8.618;2023-03-25T06:35:20;93958.53;;;15.25;38.53
70902;BME280;58548;47.210;8.618;2023-03-25T06:37:49;93869.59;;;14.66;38.39
70902;BME280;58548;47.210;8.618;2023-03-25T06:40:20;93959.25;;;15.32;38.34
70902;BME280;58548;47.210;8.618;2023-03-25T06:42:46;93967.97;;;15.32;38.42
70902;BME280;58548;47.210;8.618;2023-03-25T06:45:19;93850.34;;;14.72;38.46
70902;BME280;58548;47.210;8.618;2023-03-25T06:47:45;93833.53;;;14.54;38.16
70902;BME280;58548;47.210;8.618;2023-03-25T06:50:11;93906.25;;;14.98;37.79
70902;BME280;58548;47.210;8.618;2023-03-25T06:52:36;93852.19;;;14.71;38.16
70902;BME280;58548;47.210;8.618;2023-03-25T06:55:03;93940.19;;;15.18;38.03
70902;BME280;58548;47.210;8.618;2023-03-25T06:57:32;93957.38;;;15.20;38.40
70902;BME280;58548;47.210;8.618;2023-03-25T06:59:58;93805.59;;;14.41;38.51
70902;BME280;58548;47.210;8.618;2023-03-25T07:02:27;93832.78;;;14.66;38.55
70902;BME280;58548;47.210;8.618;2023-03-25T07:04:53;93932.50;;;15.35;38.50
70902;BME280;58548;47.210;8.618;2023-03-25T07:07:21;93939.38;;;15.36;38.40
70902;BME280;58548;47.210;8.618;2023-03-25T07:09:54;93828.69;;;14.88;38.17
70902;BME280;58548;47.210;8.618;2023-03-25T07:12:22;93831.47;;;14.93;38.48
70902;BME280;58548;47.210;8.618;2023-03-25T07:14:54;93871.50;;;15.26;38.20
70902;BME280;58548;47.210;8.618;2023-03-25T07:17:22;93921.16;;;15.65;38.35
70902;BME280;58548;47.210;8.618;2023-03-25T07:19:48;93937.00;;;15.77;38.30
70902;BME280;58548;47.210;8.618;2023-03-25T07:22:14;93938.28;;;15.86;38.31
70902;BME280;58548;47.210;8.618;2023-03-25T07:24:41;93901.13;;;15.64;38.00
70902;BME280;58548;47.210;8.618;2023-03-25T07:27:12;93932.03;;;15.99;38.17
70902;BME280;58548;47.210;8.618;2023-03-25T07:29:39;93934.97;;;15.91;37.87
70902;BME280;58548;47.210;8.618;2023-03-25T07:32:07;93923.31;;;15.87;38.13
70902;BME280;58548;47.210;8.618;2023-03-25T07:34:38;93834.25;;;15.41;37.93
70902;BME280;58548;47.210;8.618;2023-03-25T07:37:09;93811.47;;;15.35;37.98
70902;BME280;58548;47.210;8.618;2023-03-25T07:39:40;93925.97;;;16.22;37.83
70902;BME280;58548;47.210;8.618;2023-03-25T07:42:06;93933.06;;;16.22;38.19
70902;BME280;58548;47.210;8.618;2023-03-25T07:44:32;93850.91;;;15.77;38.38
70902;BME280;58548;47.210;8.618;2023-03-25T07:47:00;93848.41;;;15.82;37.74
70902;BME280;58548;47.210;8.618;2023-03-25T07:49:27;93822.28;;;15.81;37.73
70902;BME280;58548;47.210;8.618;2023-03-25T07:51:56;93926.19;;;16.68;37.54
70902;BME280;58548;47.210;8.618;2023-03-25T07:54:26;93845.31;;;16.21;36.93
70902;BME280;58548;47.210;8.618;2023-03-25T07:56:55;93907.28;;;16.71;37.43
70902;BME280;58548;47.210;8.618;2023-03-25T07:59:22;93820.69;;;16.16;36.61
70902;BME280;58548;47.210;8.618;2023-03-25T08:01:51;93828.13;;;16.31;37.00
70902;BME280;58548;47.210;8.618;2023-03-25T08:04:19;93922.38;;;16.88;36.09
70902;BME280;58548;47.210;8.618;2023-03-25T08:06:47;93916.09;;;16.77;36.17
70902;BME280;58548;47.210;8.618;2023-03-25T08:09:18;93908.88;;;16.72;36.47
70902;BME280;58548;47.210;8.618;2023-03-25T08:11:44;93736.66;;;15.78;36.45
70902;BME280;58548;47.210;8.618;2023-03-25T08:14:12;93892.91;;;16.91;35.69
70902;BME280;58548;47.210;8.618;2023-03-25T08:16:38;93892.97;;;17.08;35.79
70902;BME280;58548;47.210;8.618;2023-03-25T08:19:07;93928.28;;;17.19;34.63
70902;BME280;58548;47.210;8.618;2023-03-25T08:21:33;93916.94;;;17.18;35.31
70902;BME280;58548;47.210;8.618;2023-03-25T08:23:59;93923.53;;;17.33;35.49
70902;BME280;58548;47.210;8.618;2023-03-25T08:26:30;93926.94;;;17.45;35.31
70902;BME280;58548;47.210;8.618;2023-03-25T08:28:59;93814.81;;;16.90;35.42
70902;BME280;58548;47.210;8.618;2023-03-25T08:31:29;93916.59;;;17.73;35.42
70902;BME280;58548;47.210;8.618;2023-03-25T08:34:00;93800.06;;;17.35;35.31
70902;BME280;58548;47.210;8.618;2023-03-25T08:36:33;93886.00;;;18.45;34.73
70902;BME280;58548;47.210;8.618;2023-03-25T08:38:59;93901.50;;;19.20;33.91
70902;BME280;58548;47.210;8.618;2023-03-25T08:41:28;93851.03;;;19.54;33.01
70902;BME280;58548;47.210;8.618;2023-03-25T08:43:54;93897.97;;;20.24;30.89
70902;BME280;58548;47.210;8.618;2023-03-25T08:46:20;93799.66;;;19.88;31.72
70902;BME280;58548;47.210;8.618;2023-03-25T08:48:46;93818.38;;;20.14;30.71
70902;BME280;58548;47.210;8.618;2023-03-25T08:51:13;93819.41;;;20.08;29.58
70902;BME280;58548;47.210;8.618;2023-03-25T08:53:38;93917.34;;;20.68;29.92
70902;BME280;58548;47.210;8.618;2023-03-25T08:56:05;93921.72;;;20.46;29.71
70902;BME280;58548;47.210;8.618;2023-03-25T08:58:34;93811.69;;;19.68;30.26
70902;BME280;58548;47.210;8.618;2023-03-25T09:01:01;93909.59;;;20.18;29.62
70902;BME280;58548;47.210;8.618;2023-03-25T09:03:29;93917.22;;;20.09;29.65
70902;BME280;58548;47.210;8.618;2023-03-25T09:05:55;93916.84;;;19.95;29.26
70902;BME280;58548;47.210;8.618;2023-03-25T09:08:23;93896.63;;;19.62;29.90
70902;BME280;58548;47.210;8.618;2023-03-25T09:10:49;93875.25;;;19.41;30.18
70902;BME280;58548;47.210;8.618;2023-03-25T09:13:18;93884.44;;;19.33;30.68
70902;BME280;58548;47.210;8.618;2023-03-25T09:15:44;93903.53;;;19.35;30.71
70902;BME280;58548;47.210;8.618;2023-03-25T09:18:10;93906.56;;;19.22;31.16
70902;BME280;58548;47.210;8.618;2023-03-25T09:20:36;93880.91;;;19.00;31.30
70902;BME280;58548;47.210;8.618;2023-03-25T09:23:02;93909.72;;;19.19;30.70
70902;BME280;58548;47.210;8.618;2023-03-25T09:25:28;93848.28;;;18.72;31.04
70902;BME280;58548;47.210;8.618;2023-03-25T09:27:54;93824.91;;;18.64;30.87
70902;BME280;58548;47.210;8.618;2023-03-25T09:30:20;93802.13;;;18.41;31.29
70902;BME280;58548;47.210;8.618;2023-03-25T09:32:48;93924.19;;;19.11;31.01
70902;BME280;58548;47.210;8.618;2023-03-25T09:35:14;93930.34;;;19.17;30.42
70902;BME280;58548;47.210;8.618;2023-03-25T09:37:40;93830.38;;;18.57;30.65
70902;BME280;58548;47.210;8.618;2023-03-25T09:40:06;93825.75;;;18.47;31.24
70902;BME280;58548;47.210;8.618;2023-03-25T09:48:07;93907.22;;;18.50;31.76
70902;BME280;58548;47.210;8.618;2023-03-25T09:50:42;93853.44;;;17.88;32.77
70902;BME280;58548;47.210;8.618;2023-03-25T09:53:21;93936.66;;;18.03;32.67
70902;BME280;58548;47.210;8.618;2023-03-25T09:55:50;93872.66;;;17.38;33.47
70902;BME280;58548;47.210;8.618;2023-03-25T10:01:24;93942.81;;;17.33;34.29
70902;BME280;58548;47.210;8.618;2023-03-25T10:04:32;93935.91;;;17.44;34.20
70902;BME280;58548;47.210;8.618;2023-03-25T10:17:46;93940.34;;;18.53;34.03
70902;BME280;58548;47.210;8.618;2023-03-25T10:20:24;93940.75;;;18.84;32.89
70902;BME280;58548;47.210;8.618;2023-03-25T10:25:26;93817.50;;;18.21;33.17
70902;BME280;58548;47.210;8.618;2023-03-25T10:27:57;93934.50;;;18.90;32.78
70902;BME280;58548;47.210;8.618;2023-03-25T10:30:33;93960.63;;;18.87;33.27
70902;BME280;58548;47.210;8.618;2023-03-25T10:33:03;93943.09;;;18.80;33.51
70902;BME280;58548;47.210;8.618;2023-03-25T10:35:39;93953.44;;;18.65;33.06
70902;BME280;58548;47.210;8.618;2023-03-25T10:38:18;93853.34;;;17.83;33.16
70902;BME280;58548;47.210;8.618;2023-03-25T10:43:39;93910.72;;;18.00;34.18
70902;BME280;58548;47.210;8.618;2023-03-25T10:46:22;93969.81;;;18.28;33.46
70902;BME280;58548;47.210;8.618;2023-03-25T10:48:50;93962.28;;;18.02;33.43
70902;BME280;58548;47.210;8.618;2023-03-25T10:51:22;93887.19;;;17.52;33.96
70902;BME280;58548;47.210;8.618;2023-03-25T10:53:53;93845.66;;;17.30;33.45
70902;BME280;58548;47.210;8.618;2023-03-25T10:56:35;93944.19;;;18.11;33.87
70902;BME280;58548;47.210;8.618;2023-03-25T10:59:16;93837.47;;;17.32;33.31
70902;BME280;58548;47.210;8.618;2023-03-25T11:01:45;93938.72;;;18.01;33.00
70902;BME280;58548;47.210;8.618;2023-03-25T11:04:19;93949.31;;;18.18;33.34
70902;BME280;58548;47.210;8.618;2023-03-25T11:06:54;93963.41;;;18.23;32.86
70902;BME280;58548;47.210;8.618;2023-03-25T11:09:30;93857.84;;;17.66;33.21
70902;BME280;58548;47.210;8.618;2023-03-25T11:11:59;93957.34;;;18.40;33.40
70902;BME280;58548;47.210;8.618;2023-03-25T11:14:28;93961.50;;;18.36;32.88
70902;BME280;58548;47.210;8.618;2023-03-25T11:16:55;93966.06;;;18.41;32.42
70902;BME280;58548;47.210;8.618;2023-03-25T11:22:06;93863.78;;;17.90;32.21
70902;BME280;58548;47.210;8.618;2023-03-25T11:24:39;93953.94;;;18.62;32.81
70902;BME280;58548;47.210;8.618;2023-03-25T11:27:08;93951.88;;;18.64;32.66
70902;BME280;58548;47.210;8.618;2023-03-25T11:29:36;93862.84;;;18.13;32.88
70902;BME280;58548;47.210;8.618;2023-03-25T11:32:15;93917.16;;;18.60;32.40
70902;BME280;58548;47.210;8.618;2023-03-25T11:34:47;93938.75;;;18.74;33.26
70902;BME280;58548;47.210;8.618;2023-03-25T11:37:19;93923.34;;;18.88;32.51
70902;BME280;58548;47.210;8.618;2023-03-25T11:39:52;93959.81;;;19.03;32.01
70902;BME280;58548;47.210;8.618;2023-03-25T11:45:01;93954.84;;;18.90;31.53
70902;BME280;58548;47.210;8.618;2023-03-25T11:47:34;93962.16;;;18.82;31.53
70902;BME280;58548;47.210;8.618;2023-03-25T11:50:22;93925.47;;;18.69;32.62
70902;BME280;58548;47.210;8.618;2023-03-25T11:52:56;93952.97;;;18.68;31.75
70902;BME280;58548;47.210;8.618;2023-03-25T11:55:31;93834.38;;;17.86;31.67
70902;BME280;58548;47.210;8.618;2023-03-25T11:58:01;93962.50;;;18.69;31.65
70902;BME280;58548;47.210;8.618;2023-03-25T12:00:30;93913.38;;;18.56;31.21
70902;BME280;58548;47.210;8.618;2023-03-25T12:03:08;93952.78;;;18.75;31.18
70902;BME280;58548;47.210;8.618;2023-03-25T12:05:41;93905.34;;;18.68;30.57
70902;BME280;58548;47.210;8.618;2023-03-25T12:13:25;93938.66;;;18.86;29.69
70902;BME280;58548;47.210;8.618;2023-03-25T12:16:24;93831.53;;;18.44;29.92
70902;BME280;58548;47.210;8.618;2023-03-25T12:30:24;93928.75;;;18.76;29.46
70902;BME280;58548;47.210;8.618;2023-03-25T12:36:05;93915.09;;;18.84;29.94
70902;BME280;58548;47.210;8.618;2023-03-25T12:39:01;93928.38;;;18.90;30.51
70902;BME280;58548;47.210;8.618;2023-03-25T12:41:55;93900.06;;;18.68;30.75
70902;BME280;58548;47.210;8.618;2023-03-25T13:04:03;93941.22;;;18.81;29.52
70902;BME280;58548;47.210;8.618;2023-03-25T13:06:57;93957.59;;;18.78;29.56
70902;BME280;58548;47.210;8.618;2023-03-25T13:12:37;93931.97;;;18.61;29.97
70902;BME280;58548;47.210;8.618;2023-03-25T13:15:14;93943.50;;;18.72;29.73
70902;BME280;58548;47.210;8.618;2023-03-25T13:18:14;93926.47;;;18.63;29.68
70902;BME280;58548;47.210;8.618;2023-03-25T13:23:34;93938.91;;;18.11;30.42
70902;BME280;58548;47.210;8.618;2023-03-25T13:28:58;93954.38;;;17.90;30.41
70902;BME280;58548;47.210;8.618;2023-03-25T13:31:34;93854.13;;;17.32;30.98
70902;BME280;58548;47.210;8.618;2023-03-25T13:42:49;93967.00;;;17.71;31.71
70902;BME280;58548;47.210;8.618;2023-03-25T13:45:22;93955.63;;;17.71;32.65
70902;BME280;58548;47.210;8.618;2023-03-25T13:47:57;93941.41;;;17.72;31.67
70902;BME280;58548;47.210;8.618;2023-03-25T13:50:31;93858.38;;;17.33;31.36
70902;BME280;58548;47.210;8.618;2023-03-25T13:55:39;93958.44;;;18.44;30.00
70902;BME280;58548;47.210;8.618;2023-03-25T14:01:31;93863.31;;;17.76;30.04
70902;BME280;58548;47.210;8.618;2023-03-25T14:12:40;93921.84;;;19.64;30.22
70902;BME280;58548;47.210;8.618;2023-03-25T14:15:21;93871.38;;;19.49;28.70
70902;BME280;58548;47.210;8.618;2023-03-25T14:17:49;93794.34;;;19.23;28.12
70902;BME280;58548;47.210;8.618;2023-03-25T14:20:23;93813.31;;;19.14;28.13
70902;BME280;58548;47.210;8.618;2023-03-25T14:23:03;93808.03;;;19.14;28.08
70902;BME280;58548;47.210;8.618;2023-03-25T14:28:02;93921.22;;;19.84;28.13
70902;BME280;58548;47.210;8.618;2023-03-25T14:30:34;93861.97;;;19.63;28.35
70902;BME280;58548;47.210;8.618;2023-03-25T14:33:02;93918.91;;;19.88;27.92
70902;BME280;58548;47.210;8.618;2023-03-25T14:43:26;93925.84;;;19.94;28.12
70902;BME280;58548;47.210;8.618;2023-03-25T14:48:46;93840.59;;;19.15;27.53
70902;BME280;58548;47.210;8.618;2023-03-25T14:51:18;93913.00;;;19.53;27.93
70902;BME280;58548;47.210;8.618;2023-03-25T14:56:34;93935.94;;;18.98;28.23
70902;BME280;58548;47.210;8.618;2023-03-25T14:59:16;93921.38;;;18.78;29.19
70902;BME280;58548;47.210;8.618;2023-03-25T15:01:46;93936.59;;;18.71;29.32
70902;BME280;58548;47.210;8.618;2023-03-25T15:04:34;93841.88;;;18.06;29.19
70902;BME280;58548;47.210;8.618;2023-03-25T15:07:08;93921.38;;;18.39;29.48
70902;BME280;58548;47.210;8.618;2023-03-25T15:09:46;93940.81;;;18.33;30.01
70902;BME280;58548;47.210;8.618;2023-03-25T15:12:18;93856.91;;;17.89;30.01
70902;BME280;58548;47.210;8.618;2023-03-25T15:14:54;93836.88;;;17.76;29.97
70902;BME280;58548;47.210;8.618;2023-03-25T15:20:24;93918.63;;;18.51;28.71
70902;BME280;58548;47.210;8.618;2023-03-25T15:23:29;93932.81;;;18.45;28.55
70902;BME280;58548;47.210;8.618;2023-03-25T15:26:00;93883.78;;;18.37;28.85
70902;BME280;58548;47.210;8.618;2023-03-25T15:37:47;93921.09;;;18.58;29.38
70902;BME280;58548;47.210;8.618;2023-03-25T15:57:02;93922.56;;;18.14;30.32
70902;BME280;58548;47.210;8.618;2023-03-25T15:59:44;93796.22;;;17.26;30.35
70902;BME280;58548;47.210;8.618;2023-03-25T16:04:52;93905.56;;;17.76;30.15
70902;BME280;58548;47.210;8.618;2023-03-25T16:07:22;93909.31;;;17.80;30.46
70902;BME280;58548;47.210;8.618;2023-03-25T16:09:50;93820.03;;;17.31;30.71
70902;BME280;58548;47.210;8.618;2023-03-25T16:12:23;93914.28;;;17.93;30.33
70902;BME280;58548;47.210;8.618;2023-03-25T16:14:51;93815.56;;;17.31;30.26
70902;BME280;58548;47.210;8.618;2023-03-25T16:17:29;93920.78;;;18.03;30.83
70902;BME280;58548;47.210;8.618;2023-03-25T16:20:00;93880.25;;;17.80;30.24
70902;BME280;58548;47.210;8.618;2023-03-25T16:22:33;93919.50;;;18.22;29.93
70902;BME280;58548;47.210;8.618;2023-03-25T16:25:06;93910.53;;;18.23;30.08
70902;BME280;58548;47.210;8.618;2023-03-25T16:27:45;93916.06;;;18.39;30.14
70902;BME280;58548;47.210;8.618;2023-03-25T16:30:31;93793.03;;;17.75;29.97